Home > Products > Valid Products > TAF

000
FTUS41 KCAR 281733
TAFBGR
TAF
KBGR 281733Z 2818/2918 32010G16KT P6SM SCT050
     FM282200 32008KT P6SM SKC=



000
FTUS41 KCAR 281733
TAFBHB
TAF
KBHB 281733Z 2818/2918 31011G18KT P6SM SCT060
     FM282100 31008KT P6SM SKC=



000
FTUS41 KCAR 281733
TAFPQI
TAF
KPQI 281733Z 2818/2918 34013G20KT P6SM BKN050
     FM282300 33007KT P6SM SKC=



000
FTUS41 KCAR 281733
TAFCAR
TAF
KCAR 281733Z 2818/2918 32014G21KT P6SM BKN050
     FM282200 32009KT P6SM SCT080
     FM290000 33005KT P6SM SKC=



000
FTUS41 KCAR 281733
TAFHUL
TAF
KHUL 281733Z 2818/2918 28010G18KT P6SM BKN050
     FM290100 34006KT P6SM FEW250=



000
FTUS41 KCAR 281358 AAA
TAFHUL
TAF AMD
KHUL 281358Z 2814/2912 31007KT P6SM VCSH BKN040
     FM281500 31010G19KT P6SM SCT045
     FM282000 32009KT P6SM SCT250=



000
FTUS41 KCAR 281120
TAFBGR
TAF
KBGR 281120Z 2812/2912 32007KT P6SM FEW250
     FM290400 03004KT P6SM FEW250=



000
FTUS41 KCAR 281120
TAFCAR
TAF
KCAR 281120Z 2812/2912 30007KT P6SM SCT250
     FM281500 31010G19KT P6SM BKN045
     FM282200 32007KT P6SM SCT250=



000
FTUS41 KCAR 281120
TAFBHB
TAF
KBHB 281120Z 2812/2912 33008KT P6SM FEW250
     FM282300 30004KT P6SM FEW250=



000
FTUS41 KCAR 281120
TAFPQI
TAF
KPQI 281120Z 2812/2912 30007KT P6SM SCT250
     FM281500 31010G19KT P6SM BKN045
     FM282200 33007KT P6SM SCT250=



000
FTUS41 KCAR 281120
TAFHUL
TAF
KHUL 281120Z 2812/2912 31007KT P6SM SCT250
     FM281600 31010G19KT P6SM SCT045
     FM282000 32009KT P6SM SCT250=



000
FTUS41 KCAR 280520
TAFBHB
TAF
KBHB 280520Z 2806/2906 35008KT P6SM SCT250
     FM281400 30007G15KT P6SM FEW250
     FM290200 03004KT P6SM FEW250=



000
FTUS41 KCAR 280520
TAFPQI
TAF
KPQI 280520Z 2806/2906 34004KT P6SM BKN080
     FM281300 30008KT P6SM BKN035
     FM281900 32010G19KT P6SM SCT080
     FM282300 33006KT P6SM SCT250=



000
FTUS41 KCAR 280520
TAFBGR
TAF
KBGR 280520Z 2806/2906 34004KT P6SM SCT250
     FM281400 32008G16KT P6SM FEW250
     FM290400 03004KT P6SM FEW250=



000
FTUS41 KCAR 280520
TAFHUL
TAF
KHUL 280520Z 2806/2906 34005KT P6SM BKN060
     FM281500 31009G18KT P6SM SCT035
     FM282000 32009KT P6SM SCT250=



000
FTUS41 KCAR 280520
TAFCAR
TAF
KCAR 280520Z 2806/2906 VRB03KT P6SM BKN080
     FM281200 30007KT P6SM BKN040
     FM281700 32011G20KT P6SM BKN035
     FM282300 33006KT P6SM SCT250=



000
FTUS41 KCAR 280137 AAA
TAFCAR
TAF AMD
KCAR 280137Z 2802/2824 33009KT P6SM BKN060
      TEMPO 2802/2804 6SM -SN BKN028
     FM280400 33007KT P6SM BKN045=



000
FTUS41 KCAR 272325
TAFBHB
TAF
KBHB 272325Z 2800/2824 24008KT P6SM FEW250
     FM280300 28008KT P6SM SCT070
     FM280500 32009KT P6SM SCT080=



000
FTUS41 KCAR 272325
TAFBGR
TAF
KBGR 272325Z 2800/2824 28005KT P6SM BKN130
     FM281700 30009KT P6SM FEW050=



000
FTUS41 KCAR 272325
TAFPQI
TAF
KPQI 272325Z 2800/2824 31008KT P6SM BKN070=



000
FTUS41 KCAR 272325
TAFHUL
TAF
KHUL 272325Z 2800/2824 30009KT P6SM BKN090=



000
FTUS41 KCAR 272325
TAFCAR
TAF
KCAR 272325Z 2800/2824 33009KT P6SM BKN060
     FM280400 33007KT P6SM BKN045=



000
FTUS41 KCAR 271954 AAA
TAFBHB
TAF AMD
KBHB 271954Z 2720/2818 19013G23KT P6SM SKC
     FM272300 20007KT P6SM FEW250
     FM281000 33006KT P6SM SCT250=



000
FTUS41 KCAR 271954 AAA
TAFBHB
TAF AMD
KBHB 271954Z 2720/2818 19013G23KT P6SM SKC
     FM272300 20007KT P6SM FEW250
     FM281000 33006KT P6SM SCT250=



000
FTUS41 KCAR 271734
TAFBHB
TAF
KBHB 271734Z 2718/2818 20008KT P6SM FEW250
     FM281000 33006KT P6SM SCT250=



000
FTUS41 KCAR 271734
TAFCAR
TAF
KCAR 271734Z 2718/2818 31010G18KT P6SM BKN070
     FM272300 32006KT P6SM BKN040
     FM281600 30010KT P6SM BKN040=



000
FTUS41 KCAR 271734
TAFHUL
TAF
KHUL 271734Z 2718/2818 26010KT P6SM SCT250
     FM280000 30008KT P6SM BKN040
     FM280600 33005KT P6SM SCT060
     FM281700 30010KT P6SM BKN035=



000
FTUS41 KCAR 271734
TAFBGR
TAF
KBGR 271734Z 2718/2818 27008KT P6SM SKC
     FM280200 28004KT P6SM SCT080
     FM281300 31008KT P6SM FEW250=



000
FTUS41 KCAR 271734
TAFPQI
TAF
KPQI 271734Z 2718/2818 28010G18KT P6SM SCT070
     FM272200 30010G18KT P6SM BKN070
     FM280300 32006KT P6SM BKN040
     FM281600 30010KT P6SM BKN040=



000
FTUS41 KCAR 271120
TAFBHB
TAF
KBHB 271120Z 2712/2812 33006KT P6SM FEW250
     FM280000 24007KT P6SM FEW250
     FM280400 30006KT P6SM SCT110
      AMD LTD TO CLD VIS AND WIND=



000
FTUS41 KCAR 271120
TAFBGR
TAF
KBGR 271120Z 2712/2812 33004KT P6SM FEW250
     FM271700 27008KT P6SM SKC
     FM280200 28004KT P6SM BKN250=



000
FTUS41 KCAR 271120
TAFPQI
TAF
KPQI 271120Z 2712/2812 33008KT P6SM SCT250
     FM271600 29010KT P6SM SCT050
     FM272200 30009KT P6SM BKN045=



000
FTUS41 KCAR 271120
TAFHUL
TAF
KHUL 271120Z 2712/2812 33007KT P6SM FEW250
     FM280100 30007KT P6SM OVC045
     FM280600 33005KT P6SM SCT250=



000
FTUS41 KCAR 271120
TAFCAR
TAF
KCAR 271120Z 2712/2812 32009KT P6SM SCT250
     FM271600 29010KT P6SM BKN045=



000
FTUS41 KCAR 271120
TAFBHB
TAF
KBHB 271120Z 2712/2812 33006KT P6SM FEW250
     FM280000 24007KT P6SM FEW250
     FM280400 30006KT P6SM SCT110
      AMD LTD TO CLD VIS AND WIND=



000
FTUS41 KCAR 271120
TAFBGR
TAF
KBGR 271120Z 2712/2812 33004KT P6SM FEW250
     FM271700 27008KT P6SM SKC
     FM280200 28004KT P6SM BKN250=



000
FTUS41 KCAR 271120
TAFPQI
TAF
KPQI 271120Z 2712/2812 33008KT P6SM SCT250
     FM271600 29010KT P6SM SCT050
     FM272200 30009KT P6SM BKN045=



000
FTUS41 KCAR 271120
TAFHUL
TAF
KHUL 271120Z 2712/2812 33007KT P6SM FEW250
     FM280100 30007KT P6SM OVC045
     FM280600 33005KT P6SM SCT250=



000
FTUS41 KCAR 271120
TAFCAR
TAF
KCAR 271120Z 2712/2812 32009KT P6SM SCT250
     FM271600 29010KT P6SM BKN045=



000
FTUS41 KCAR 270520
TAFBGR
TAF
KBGR 270520Z 2706/2806 24004KT P6SM SKC
     FM271000 31005KT P6SM SKC
     FM271600 29008G16KT P6SM SCT250
     FM272300 29004KT P6SM SCT150=



000
FTUS41 KCAR 270520
TAFPQI
TAF
KPQI 270520Z 2706/2806 33005KT P6SM SKC
     FM271500 29010G18KT P6SM SCT050 BKN150
     FM271700 29010G18KT P6SM BKN050
     FM272200 32006KT P6SM BKN050=



000
FTUS41 KCAR 270520
TAFCAR
TAF
KCAR 270520Z 2706/2806 33005KT P6SM SKC
     FM271500 29010G16KT P6SM SCT050 BKN150
     FM271800 32010G16KT P6SM BKN050
     FM272200 31006KT P6SM BKN050=



000
FTUS41 KCAR 270520
TAFHUL
TAF
KHUL 270520Z 2706/2806 VRB04KT P6SM SKC
     FM271500 32010G18KT P6SM FEW040 SCT200
     FM272100 28010KT P6SM BKN100
     FM280100 32005KT P6SM BKN100=



000
FTUS41 KCAR 270520
TAFBHB
TAF
KBHB 270520Z 2706/2806 24005KT P6SM SKC
     FM271200 31009KT P6SM SKC
     FM271800 26012KT P6SM SCT250
     FM280100 27007KT P6SM SCT150
      AMD LTD TO CLD VIS AND WIND=



000
FTUS41 KCAR 262320
TAFBGR
TAF
KBGR 262320Z 2700/2724 25004KT P6SM SKC
     FM271200 31008KT P6SM SCT150=



000
FTUS41 KCAR 262320
TAFBGR
TAF
KBGR 262320Z 2700/2724 25004KT P6SM SKC
     FM271200 31008KT P6SM SCT150=



000
FTUS41 KCAR 262320
TAFBHB
TAF
KBHB 262320Z 2700/2724 28004KT P6SM SKC
     FM271200 30008KT P6SM SKC
      AMD LTD TO CLD VIS AND WIND=



000
FTUS41 KCAR 262320
TAFCAR
TAF
KCAR 262320Z 2700/2724 34005KT P6SM SKC
     FM271000 32010KT P6SM BKN060 OVC100
     FM271500 31010G18KT P6SM BKN050 OVC080=



000
FTUS41 KCAR 262320
TAFHUL
TAF
KHUL 262320Z 2700/2724 VRB03KT P6SM SKC
     FM271500 30009KT P6SM BKN150=



000
FTUS41 KCAR 262320
TAFPQI
TAF
KPQI 262320Z 2700/2724 02007KT P6SM SKC
     FM271000 32009KT P6SM BKN100
     FM271500 31010G18KT P6SM BKN070 OVC100=



000
FTUS41 KCAR 262320
TAFBHB
TAF
KBHB 262320Z 2700/2724 28004KT P6SM SKC
     FM271200 30008KT P6SM SKC
      AMD LTD TO CLD VIS AND WIND=



000
FTUS41 KCAR 262320
TAFCAR
TAF
KCAR 262320Z 2700/2724 34005KT P6SM SKC
     FM271000 32010KT P6SM BKN060 OVC100
     FM271500 31010G18KT P6SM BKN050 OVC080=



000
FTUS41 KCAR 262320
TAFPQI
TAF
KPQI 262320Z 2700/2724 02007KT P6SM SKC
     FM271000 32009KT P6SM BKN100
     FM271500 31010G18KT P6SM BKN070 OVC100=



000
FTUS41 KCAR 262320
TAFHUL
TAF
KHUL 262320Z 2700/2724 VRB03KT P6SM SKC
     FM271500 30009KT P6SM BKN150=



000
FTUS41 KCAR 262234 AAB
TAFBHB
TAF AMD
KBHB 262234Z 2623/2718 VRB03KT P6SM SCT020 BKN090
     FM270000 VRB03KT P6SM SKC
     FM271000 30008KT P6SM SKC
      AMD LTD TO CLD VIS AND WIND=



000
FTUS41 KCAR 262014 AAB
TAFBGR
TAF AMD
KBGR 262014Z 2620/2718 01005KT P6SM -SN OVC025
     FM262200 30004KT P6SM SCT050
     FM271100 31008KT P6SM SKC=



000
FTUS41 KCAR 261926 AAA
TAFBHB
TAF AMD
KBHB 261926Z 2619/2718 01005KT 2SM -SN BR OVC020
     FM262300 30004KT P6SM SCT050
     FM271000 30008KT P6SM SKC
      AMD LTD TO CLD VIS AND WIND=



000
FTUS41 KCAR 261837 AAA
TAFBGR
TAF AMD
KBGR 261837Z 2619/2718 01005KT 1 1/2SM -SN BR OVC021
     FM262300 30004KT P6SM SCT050
     FM271100 31008KT P6SM SKC=



000
FTUS41 KCAR 261720
TAFHUL
TAF
KHUL 261720Z 2618/2718 31005KT P6SM FEW250
     FM271500 30009KT P6SM SCT250=



000
FTUS41 KCAR 261720
TAFBGR
TAF
KBGR 261720Z 2618/2718 01005KT P6SM OVC060
     FM262100 30004KT P6SM SCT050
     FM271100 31008KT P6SM SKC=



000
FTUS41 KCAR 261720
TAFBHB
TAF
KBHB 261720Z 2618/2718 01005KT P6SM OVC050
     FM262200 30004KT P6SM SCT050
     FM271000 30008KT P6SM SKC
      AMD LTD TO CLD VIS AND WIND=



000
FTUS41 KCAR 261720
TAFPQI
TAF
KPQI 261720Z 2618/2718 31008KT P6SM FEW250
     FM271400 31009KT P6SM BKN110=



000
FTUS41 KCAR 261720
TAFCAR
TAF
KCAR 261720Z 2618/2718 31005KT P6SM FEW250
     FM271400 31009KT P6SM BKN050=



000
FTUS41 KCAR 261720
TAFHUL
TAF
KHUL 261720Z 2618/2718 31005KT P6SM FEW250
     FM271500 30009KT P6SM SCT250=



000
FTUS41 KCAR 261720
TAFPQI
TAF
KPQI 261720Z 2618/2718 31008KT P6SM FEW250
     FM271400 31009KT P6SM BKN110=



000
FTUS41 KCAR 261720
TAFBHB
TAF
KBHB 261720Z 2618/2718 01005KT P6SM OVC050
     FM262200 30004KT P6SM SCT050
     FM271000 30008KT P6SM SKC
      AMD LTD TO CLD VIS AND WIND=



000
FTUS41 KCAR 261720
TAFBGR
TAF
KBGR 261720Z 2618/2718 01005KT P6SM OVC060
     FM262100 30004KT P6SM SCT050
     FM271100 31008KT P6SM SKC=



000
FTUS41 KCAR 261720
TAFCAR
TAF
KCAR 261720Z 2618/2718 31005KT P6SM FEW250
     FM271400 31009KT P6SM BKN050=



000
FTUS41 KCAR 261120
TAFHUL
TAF
KHUL 261120Z 2612/2712 36005KT P6SM FEW250=



000
FTUS41 KCAR 261120
TAFPQI
TAF
KPQI 261120Z 2612/2712 34004KT P6SM FEW250=



000
FTUS41 KCAR 261120
TAFHUL
TAF
KHUL 261120Z 2612/2712 36005KT P6SM FEW250=



000
FTUS41 KCAR 261120
TAFPQI
TAF
KPQI 261120Z 2612/2712 34004KT P6SM FEW250=



000
FTUS41 KCAR 261120
TAFCAR
TAF
KCAR 261120Z 2612/2712 33005KT P6SM SKC=



000
FTUS41 KCAR 261120
TAFCAR
TAF
KCAR 261120Z 2612/2712 33005KT P6SM SKC=



000
FTUS41 KCAR 261120
TAFBGR
TAF
KBGR 261120Z 2612/2712 04005KT P6SM BKN250
     FM261700 00000KT P6SM OVC030
     FM261900 00000KT P6SM BKN050=



000
FTUS41 KCAR 261120
TAFBHB
TAF
KBHB 261120Z 2612/2712 02005KT P6SM BKN250
     FM261600 00000KT P6SM OVC030
     FM261800 00000KT P6SM OVC020
     FM262000 00000KT P6SM BKN045
      AMD LTD TO CLD VIS AND WIND=



000
FTUS41 KCAR 261120
TAFBGR
TAF
KBGR 261120Z 2612/2712 04005KT P6SM BKN250
     FM261700 00000KT P6SM OVC030
     FM261900 00000KT P6SM BKN050=



000
FTUS41 KCAR 261120
TAFBHB
TAF
KBHB 261120Z 2612/2712 02005KT P6SM BKN250
     FM261600 00000KT P6SM OVC030
     FM261800 00000KT P6SM OVC020
     FM262000 00000KT P6SM BKN045
      AMD LTD TO CLD VIS AND WIND=



000
FTUS41 KCAR 260520
TAFBGR
TAF
KBGR 260520Z 2606/2706 33004KT P6SM SCT250
     FM261300 06005KT P6SM OVC100
     FM261800 VRB04KT P6SM OVC040
     FM262100 29004KT P6SM SCT050
     FM270000 VRB03KT P6SM SKC=



000
FTUS41 KCAR 260520
TAFHUL
TAF
KHUL 260520Z 2606/2706 33003KT P6SM SCT250
     FM270400 34005KT P6SM SCT060=



000
FTUS41 KCAR 260520
TAFCAR
TAF
KCAR 260520Z 2606/2706 32006KT P6SM SCT250
     FM270400 34004KT P6SM BKN060=



000
FTUS41 KCAR 260520
TAFPQI
TAF
KPQI 260520Z 2606/2706 33006KT P6SM SCT250
     FM270400 34005KT P6SM BKN060=



000
FTUS41 KCAR 260520
TAFBHB
TAF
KBHB 260520Z 2606/2706 35003KT P6SM SCT250
     FM261200 06005KT P6SM OVC100
     FM261800 06005KT P6SM SCT025 OVC040
     FM262100 07004KT P6SM BKN050
     FM270200 34006KT P6SM SKC
      AMD LTD TO CLD VIS AND WIND=



000
FTUS41 KCAR 260520
TAFCAR
TAF
KCAR 260520Z 2606/2706 32006KT P6SM SCT250
     FM270400 34004KT P6SM BKN060=



000
FTUS41 KCAR 260520
TAFHUL
TAF
KHUL 260520Z 2606/2706 33003KT P6SM SCT250
     FM270400 34005KT P6SM SCT060=



000
FTUS41 KCAR 260520
TAFBGR
TAF
KBGR 260520Z 2606/2706 33004KT P6SM SCT250
     FM261300 06005KT P6SM OVC100
     FM261800 VRB04KT P6SM OVC040
     FM262100 29004KT P6SM SCT050
     FM270000 VRB03KT P6SM SKC=



000
FTUS41 KCAR 260128 AAA
TAFBGR
TAF AMD
KBGR 260128Z 2601/2624 35004KT P6SM FEW250
     FM261000 02004KT P6SM BKN100 OVC200
     FM261800 29004KT P6SM BKN050 OVC120=



000
FTUS41 KCAR 260128 AAA
TAFHUL
TAF AMD
KHUL 260128Z 2601/2624 00000KT P6SM SKC
     FM261400 31006KT P6SM FEW070 BKN150=



000
FTUS41 KCAR 252334
TAFBHB
TAF
KBHB 252334Z 2600/2624 21011KT P6SM SCT250
     FM260300 35005KT P6SM BKN250
     FM261400 04006KT P6SM BKN050
     FM261800 09006KT P6SM BKN035 OVC060
      AMD LTD TO CLD VIS AND WIND=



000
FTUS41 KCAR 252334
TAFHUL
TAF
KHUL 252334Z 2600/2624 33012KT P6SM SCT080
     FM260400 00000KT P6SM FEW250
     FM261400 31006KT P6SM FEW070 BKN150=



000
FTUS41 KCAR 252334
TAFBGR
TAF
KBGR 252334Z 2600/2624 31012KT P6SM BKN250
     FM261000 02004KT P6SM BKN100 OVC200
     FM261800 29004KT P6SM BKN050 OVC120=



000
FTUS41 KCAR 252334
TAFPQI
TAF
KPQI 252334Z 2600/2624 30008KT P6SM SCT080
     FM260200 VRB03KT P6SM FEW250
     FM261400 31009KT P6SM FEW070 BKN180=



000
FTUS41 KCAR 252334
TAFCAR
TAF
KCAR 252334Z 2600/2624 32010KT P6SM FEW070
     FM260300 VRB03KT P6SM FEW250
     FM261400 31010KT P6SM FEW070 BKN200=



    US Dept of Commerce
    National Oceanic and Atmospheric Administration
    National Weather Service
    1325 East West Highway
    Silver Spring, MD 20910
    Page Author: NWS Internet Services Team
Disclaimer
Information Quality
Credits
Glossary
Privacy Policy
Freedom of Information Act (FOIA)
About Us
Career Opportunities